Time;durP1;ratioP1;P1;durP2;ratioP2;P2;SDS_P1;SDS_P2;PMS_P1;PMS_P2;Temp;Humidity;BMP_temperature;BMP_pressure;BME280_temperature;BME280_humidity;BME280_pressure;Samples;Min_cycle;Max_cycle;Signal;HPM_P1;HPM_P2
2022/04/13 00:02:02;;;;;;;7.20;6.60;;;14.30;99.90;;;;;;4989501;28;20790;-66
2022/04/13 00:04:28;;;;;;;6.37;5.77;;;14.20;99.90;;;;;;4985469;28;20172;-67
2022/04/13 00:06:53;;;;;;;6.47;5.87;;;14.20;99.90;;;;;;4992114;28;20446;-66
2022/04/13 00:09:19;;;;;;;6.03;5.40;;;14.20;99.90;;;;;;4988043;28;20257;-66
2022/04/13 00:11:44;;;;;;;5.30;4.90;;;14.20;99.90;;;;;;4990949;28;20250;-66
2022/04/13 00:14:10;;;;;;;5.07;4.60;;;14.10;99.90;;;;;;4988583;28;20203;-66
2022/04/13 00:16:36;;;;;;;5.87;4.90;;;14.10;99.90;;;;;;4988601;28;20278;-66
2022/04/13 00:19:02;;;;;;;6.10;5.23;;;14.00;99.90;;;;;;4990502;28;20634;-67
2022/04/13 00:21:27;;;;;;;8.37;5.27;;;14.00;99.90;;;;;;4984178;28;20467;-66
2022/04/13 00:23:53;;;;;;;23.00;20.60;;;14.10;99.90;;;;;;4984185;28;20736;-66
2022/04/13 00:26:18;;;;;;;10.97;9.63;;;14.10;99.90;;;;;;4988251;28;20211;-66
2022/04/13 00:28:44;;;;;;;6.00;5.50;;;14.00;99.90;;;;;;4984839;28;20211;-66
2022/04/13 00:31:09;;;;;;;5.20;4.80;;;13.90;99.90;;;;;;4990653;28;20187;-65
2022/04/13 00:33:35;;;;;;;6.83;6.23;;;13.90;99.90;;;;;;4986973;28;20665;-67
2022/04/13 00:36:01;;;;;;;7.13;5.17;;;13.90;99.90;;;;;;4991432;28;20184;-66
2022/04/13 00:38:26;;;;;;;4.97;4.57;;;13.90;99.90;;;;;;4989582;28;20226;-65
2022/04/13 00:40:52;;;;;;;5.90;4.57;;;13.90;99.90;;;;;;4990176;28;20608;-66
2022/04/13 00:43:17;;;;;;;7.80;6.73;;;13.90;99.90;;;;;;4992210;28;20210;-65
2022/04/13 00:45:47;;;;;;;5.10;4.70;;;13.90;99.90;;;;;;4985629;28;20271;-66
2022/04/13 00:48:34;;;;;;;4.60;4.20;;;13.90;99.90;;;;;;4985744;28;20266;-67
2022/04/13 00:51:00;;;;;;;5.10;4.63;;;13.80;99.90;;;;;;4987970;28;20438;-67
2022/04/13 00:53:26;;;;;;;5.67;5.13;;;13.70;99.90;;;;;;4989395;28;20438;-67
2022/04/13 00:55:57;;;;;;;5.30;4.90;;;13.60;99.90;;;;;;4989723;28;20587;-66
2022/04/13 00:58:29;;;;;;;5.30;4.80;;;13.60;99.90;;;;;;4984538;28;20443;-66
2022/04/13 01:00:55;;;;;;;5.73;5.23;;;13.60;99.90;;;;;;4984088;28;20858;-67
2022/04/13 01:03:23;;;;;;;5.80;5.40;;;13.50;99.90;;;;;;4989287;28;20850;-65
2022/04/13 01:05:50;;;;;;;6.63;4.60;;;13.50;99.90;;;;;;4988203;28;20435;-67
2022/04/13 01:08:17;;;;;;;5.33;4.93;;;13.40;99.90;;;;;;4984677;28;20431;-66
2022/04/13 01:10:44;;;;;;;6.97;6.00;;;13.50;99.90;;;;;;4990703;28;20435;-67
2022/04/13 01:13:11;;;;;;;8.20;7.03;;;13.40;99.90;;;;;;4989780;28;20983;-66
2022/04/13 01:15:37;;;;;;;6.03;5.37;;;13.50;99.90;;;;;;4991317;28;20434;-66
2022/04/13 01:18:03;;;;;;;5.63;5.13;;;13.60;99.90;;;;;;4988416;28;20490;-66
2022/04/13 01:20:29;;;;;;;5.83;5.33;;;13.70;99.90;;;;;;4990748;28;20946;-66
2022/04/13 01:22:54;;;;;;;6.57;5.10;;;13.70;99.90;;;;;;4988986;28;20473;-66
2022/04/13 01:25:20;;;;;;;6.50;5.90;;;13.70;99.90;;;;;;4987113;28;20180;-66
2022/04/13 01:27:45;;;;;;;5.63;5.13;;;13.60;99.90;;;;;;4988370;28;20188;-66
2022/04/13 01:30:12;;;;;;;8.40;5.40;;;13.60;99.90;;;;;;4986694;28;20175;-66
2022/04/13 01:32:38;;;;;;;5.87;5.33;;;13.60;99.90;;;;;;4991128;28;20222;-67
2022/04/13 01:35:04;;;;;;;5.83;5.33;;;13.60;99.90;;;;;;4989354;28;20439;-66
2022/04/13 01:37:29;;;;;;;4.80;4.40;;;13.60;99.90;;;;;;4989076;28;20282;-66
2022/04/13 01:39:55;;;;;;;6.10;5.10;;;13.60;99.90;;;;;;4983482;28;20513;-66
2022/04/13 01:42:21;;;;;;;5.53;4.97;;;13.60;99.90;;;;;;4987820;28;20543;-66
2022/04/13 01:44:48;;;;;;;5.43;4.93;;;13.50;99.90;;;;;;4983574;28;20179;-66
2022/04/13 01:47:14;;;;;;;6.20;5.60;;;13.60;99.90;;;;;;4983249;28;20434;-66
2022/04/13 01:49:40;;;;;;;5.97;5.47;;;13.60;99.90;;;;;;4987441;28;20445;-67
2022/04/13 01:52:07;;;;;;;7.87;6.47;;;13.60;99.90;;;;;;4988477;28;20489;-66
2022/04/13 01:54:33;;;;;;;6.20;5.60;;;13.70;99.90;;;;;;4985129;28;20523;-66
2022/04/13 01:56:59;;;;;;;6.50;5.87;;;13.60;99.90;;;;;;4981028;28;20562;-65
2022/04/13 01:59:25;;;;;;;6.43;5.93;;;13.60;99.90;;;;;;4988862;28;20208;-65
2022/04/13 02:01:50;;;;;;;6.20;5.50;;;13.60;99.90;;;;;;4992510;28;20214;-66
2022/04/13 02:04:25;;;;;;;5.40;4.87;;;13.50;99.90;;;;;;4990197;28;20465;-65
2022/04/13 02:06:52;;;;;;;5.00;4.60;;;13.50;99.90;;;;;;4991636;28;20178;-66
2022/04/13 02:09:18;;;;;;;5.70;4.70;;;13.40;99.90;;;;;;4989778;28;20465;-66
2022/04/13 02:11:45;;;;;;;4.60;4.20;;;13.40;99.90;;;;;;4987243;28;20458;-65
2022/04/13 02:14:11;;;;;;;6.60;4.40;;;13.40;99.90;;;;;;4993085;28;20813;-66
2022/04/13 02:16:36;;;;;;;4.57;3.93;;;13.20;99.90;;;;;;4990294;28;20434;-65
2022/04/13 02:19:02;;;;;;;4.77;4.37;;;13.10;99.90;;;;;;4987609;28;20216;-65
2022/04/13 02:21:28;;;;;;;11.00;9.90;;;13.10;99.90;;;;;;4983678;28;20211;-65
2022/04/13 02:23:54;;;;;;;6.23;5.73;;;13.00;99.90;;;;;;4988921;28;20973;-65
2022/04/13 02:26:19;;;;;;;4.90;4.40;;;13.00;99.90;;;;;;4988358;28;20551;-66
2022/04/13 02:28:46;;;;;;;5.33;4.70;;;12.90;99.90;;;;;;4991902;28;20184;-65
2022/04/13 02:31:11;;;;;;;6.33;5.37;;;12.90;99.90;;;;;;4987383;28;20176;-65
2022/04/13 02:33:37;;;;;;;4.70;4.17;;;12.80;99.90;;;;;;4988675;28;20517;-65
2022/04/13 02:36:03;;;;;;;8.37;4.90;;;12.70;99.90;;;;;;4987751;28;20548;-65
2022/04/13 02:38:28;;;;;;;5.83;5.33;;;12.70;99.90;;;;;;4989163;28;20234;-65
2022/04/13 02:40:54;;;;;;;5.20;4.70;;;12.70;99.90;;;;;;4990318;28;20579;-66
2022/04/13 02:43:19;;;;;;;5.53;4.00;;;12.70;99.90;;;;;;4987404;28;20206;-65
2022/04/13 02:45:45;;;;;;;7.73;4.17;;;12.60;99.90;;;;;;4985968;28;20275;-65
2022/04/13 02:48:10;;;;;;;4.83;4.30;;;12.40;99.90;;;;;;4983952;28;20180;-65
2022/04/13 02:50:36;;;;;;;4.20;3.83;;;12.40;99.90;;;;;;4989313;28;20183;-66
2022/04/13 02:53:01;;;;;;;5.17;4.70;;;12.30;99.90;;;;;;4987000;28;20214;-65
2022/04/13 02:55:27;;;;;;;5.03;4.63;;;12.20;99.90;;;;;;4983743;28;20192;-65
2022/04/13 02:57:52;;;;;;;4.90;4.50;;;12.20;99.90;;;;;;4987407;28;20183;-66
2022/04/13 03:00:18;;;;;;;4.70;4.30;;;12.20;99.90;;;;;;4987533;28;20215;-65
2022/04/13 03:02:44;;;;;;;6.70;5.13;;;12.20;99.90;;;;;;4989100;28;20215;-65
2022/04/13 03:05:10;;;;;;;6.07;4.90;;;12.20;99.90;;;;;;4983345;28;20319;-65
2022/04/13 03:07:36;;;;;;;11.13;5.70;;;12.20;99.90;;;;;;4988134;28;20492;-65
2022/04/13 03:10:03;;;;;;;5.60;5.10;;;12.30;99.90;;;;;;4980574;28;21017;-65
2022/04/13 03:12:29;;;;;;;9.20;4.63;;;12.20;99.90;;;;;;4989563;28;20458;-65
2022/04/13 03:14:55;;;;;;;6.80;6.00;;;12.30;99.90;;;;;;4992669;28;20445;-66
2022/04/13 03:17:20;;;;;;;7.03;4.87;;;12.30;99.90;;;;;;4993802;28;20183;-65
2022/04/13 03:19:46;;;;;;;5.70;5.20;;;12.30;99.90;;;;;;4990727;28;20180;-66
2022/04/13 03:22:11;;;;;;;5.10;4.70;;;12.40;99.90;;;;;;4990081;28;20570;-65
2022/04/13 03:24:37;;;;;;;9.30;6.63;;;12.40;99.90;;;;;;4990205;28;20548;-65
2022/04/13 03:27:03;;;;;;;6.10;5.50;;;12.40;99.90;;;;;;4992668;28;20176;-65
2022/04/13 03:29:28;;;;;;;11.70;10.53;;;12.30;99.90;;;;;;4987005;28;21022;-65
2022/04/13 03:31:54;;;;;;;7.10;6.20;;;12.30;99.90;;;;;;4990467;28;20205;-65
2022/04/13 03:34:23;;;;;;;5.93;5.33;;;12.20;99.90;;;;;;4990060;28;20179;-65
2022/04/13 03:36:49;;;;;;;6.33;5.70;;;12.20;99.90;;;;;;4986812;28;20183;-65
2022/04/13 03:39:16;;;;;;;6.00;4.93;;;12.20;99.90;;;;;;4993436;28;20443;-65
2022/04/13 03:41:42;;;;;;;5.73;5.13;;;12.20;99.90;;;;;;4992777;28;20545;-65
2022/04/13 03:44:08;;;;;;;6.33;4.30;;;12.10;99.90;;;;;;4990484;28;20554;-65
2022/04/13 03:46:34;;;;;;;6.17;5.57;;;12.00;99.90;;;;;;4992219;28;20445;-65
2022/04/13 03:48:59;;;;;;;6.60;5.13;;;11.90;99.90;;;;;;4992355;28;20443;-65
2022/04/13 03:51:25;;;;;;;6.43;4.90;;;11.90;99.90;;;;;;4988804;28;20246;-65
2022/04/13 03:53:51;;;;;;;5.10;4.70;;;11.80;99.90;;;;;;4988848;28;20552;-65
2022/04/13 03:56:16;;;;;;;6.17;5.57;;;11.80;99.90;;;;;;4990414;28;20443;-65
2022/04/13 03:58:42;;;;;;;6.63;4.53;;;11.80;99.90;;;;;;4990156;28;20551;-65
2022/04/13 04:01:09;;;;;;;6.03;5.53;;;11.70;99.90;;;;;;4992527;28;20184;-65
2022/04/13 04:03:35;;;;;;;9.73;5.20;;;11.70;99.90;;;;;;4988409;28;20675;-65
2022/04/13 04:06:01;;;;;;;5.93;5.33;;;11.70;99.90;;;;;;4992050;28;20466;-65
2022/04/13 04:08:28;;;;;;;7.93;5.70;;;11.70;99.90;;;;;;4983623;28;20432;-65
2022/04/13 04:10:53;;;;;;;6.57;4.93;;;11.60;99.90;;;;;;4990952;28;20431;-66
2022/04/13 04:13:19;;;;;;;5.87;5.37;;;11.60;99.90;;;;;;4987032;28;20443;-64
2022/04/13 04:15:45;;;;;;;6.10;5.37;;;11.60;99.90;;;;;;4989306;28;20226;-65
2022/04/13 04:18:10;;;;;;;6.60;5.03;;;11.60;99.90;;;;;;4988854;28;20949;-65
2022/04/13 04:20:36;;;;;;;6.30;4.87;;;11.50;99.90;;;;;;4989031;28;20301;-65
2022/04/13 04:23:01;;;;;;;5.07;4.53;;;11.50;99.90;;;;;;4989884;28;20211;-65
2022/04/13 04:25:27;;;;;;;6.33;5.20;;;11.50;99.90;;;;;;4986941;28;20191;-64
2022/04/13 04:27:52;;;;;;;7.50;5.30;;;11.40;99.90;;;;;;4988162;28;20195;-65
2022/04/13 04:30:18;;;;;;;8.30;6.60;;;11.30;99.90;;;;;;4989182;28;20608;-65
2022/04/13 04:32:43;;;;;;;8.40;6.40;;;11.40;99.90;;;;;;4986583;28;20195;-65
2022/04/13 04:35:09;;;;;;;9.20;8.30;;;11.40;99.90;;;;;;4993002;28;20175;-65
2022/04/13 04:37:35;;;;;;;6.50;5.90;;;11.50;99.90;;;;;;4992507;28;20189;-65
2022/04/13 04:40:01;;;;;;;7.53;6.83;;;11.50;99.90;;;;;;4993721;28;20936;-67
2022/04/13 04:42:27;;;;;;;8.33;5.53;;;11.50;99.90;;;;;;4989798;28;20266;-65
2022/04/13 04:44:58;;;;;;;7.50;5.63;;;11.50;99.90;;;;;;4992190;28;20934;-67
2022/04/13 04:47:25;;;;;;;7.20;6.50;;;11.40;99.90;;;;;;4989271;28;20199;-65
2022/04/13 04:49:51;;;;;;;6.63;6.03;;;11.40;99.90;;;;;;4985339;28;20441;-65
2022/04/13 04:52:16;;;;;;;8.73;6.87;;;11.40;99.90;;;;;;4991150;28;20561;-64
2022/04/13 04:54:42;;;;;;;8.33;7.00;;;11.40;99.90;;;;;;4986073;28;20188;-65
2022/04/13 04:57:08;;;;;;;7.50;6.57;;;11.40;99.90;;;;;;4987574;28;20715;-65
2022/04/13 04:59:34;;;;;;;8.73;6.80;;;11.40;99.90;;;;;;4989826;28;20184;-66
2022/04/13 05:02:00;;;;;;;9.20;7.50;;;11.40;99.90;;;;;;4991102;28;21083;-65
2022/04/13 05:04:25;;;;;;;7.53;6.73;;;11.50;99.90;;;;;;4989216;28;20466;-65
2022/04/13 05:06:51;;;;;;;7.50;6.30;;;11.50;99.90;;;;;;4991827;28;20190;-65
2022/04/13 05:09:20;;;;;;;7.87;6.47;;;11.50;99.90;;;;;;4988703;28;20588;-66
2022/04/13 05:11:46;;;;;;;9.80;6.77;;;11.50;99.90;;;;;;4985557;28;20263;-65
2022/04/13 05:14:12;;;;;;;10.90;7.03;;;11.50;99.90;;;;;;4993022;28;20443;-66
2022/04/13 05:16:37;;;;;;;7.00;6.30;;;11.60;99.90;;;;;;4989427;28;20549;-66
2022/04/13 05:19:03;;;;;;;8.13;6.10;;;11.70;99.90;;;;;;4987849;28;20187;-66
2022/04/13 05:21:28;;;;;;;10.20;7.00;;;11.70;99.90;;;;;;4990041;28;20249;-66
2022/04/13 05:23:53;;;;;;;9.00;7.83;;;11.80;99.90;;;;;;4991639;28;20279;-66
2022/04/13 05:26:19;;;;;;;8.70;6.87;;;11.80;99.90;;;;;;4990591;28;20183;-66
2022/04/13 05:28:47;;;;;;;6.77;6.20;;;11.90;99.90;;;;;;4989114;28;20176;-66
2022/04/13 05:31:13;;;;;;;10.80;7.63;;;12.00;99.90;;;;;;4990447;28;20674;-67
2022/04/13 05:33:39;;;;;;;6.93;5.97;;;12.10;99.90;;;;;;4991426;28;20442;-66
2022/04/13 05:36:04;;;;;;;12.53;7.30;;;12.30;99.90;;;;;;4984976;28;20797;-65
2022/04/13 05:38:30;;;;;;;8.50;6.77;;;12.30;99.90;;;;;;4990676;28;20198;-66
2022/04/13 05:40:56;;;;;;;9.10;6.47;;;12.50;99.90;;;;;;4987647;28;20183;-65
2022/04/13 05:43:21;;;;;;;10.23;6.53;;;12.70;99.90;;;;;;4989155;28;20200;-66
2022/04/13 05:45:47;;;;;;;9.53;6.37;;;12.80;99.90;;;;;;4986698;28;20179;-65
2022/04/13 05:48:12;;;;;;;6.33;5.30;;;12.90;99.90;;;;;;4986198;28;20176;-68
2022/04/13 05:50:38;;;;;;;8.70;6.70;;;13.00;99.90;;;;;;4989171;28;20189;-67
2022/04/13 05:53:03;;;;;;;13.03;7.37;;;13.10;99.90;;;;;;4989718;28;20220;-67
2022/04/13 05:55:29;;;;;;;20.53;16.37;;;13.30;99.90;;;;;;4991933;28;20191;-66
2022/04/13 05:57:55;;;;;;;9.40;7.47;;;13.40;99.90;;;;;;4988604;28;20197;-66
2022/04/13 06:00:21;;;;;;;8.10;6.63;;;13.50;99.90;;;;;;4982619;28;20434;-67
2022/04/13 06:02:47;;;;;;;8.70;6.50;;;13.70;99.90;;;;;;4988173;28;20586;-67
2022/04/13 06:05:13;;;;;;;13.83;7.07;;;13.90;99.90;;;;;;4986846;28;20186;-67
2022/04/13 06:07:40;;;;;;;10.30;6.50;;;14.00;99.90;;;;;;4987449;28;20712;-67
2022/04/13 06:10:06;;;;;;;6.77;6.13;;;14.20;99.90;;;;;;4985364;28;20433;-67
2022/04/13 06:12:32;;;;;;;7.17;6.40;;;14.30;99.90;;;;;;4985016;28;20520;-67
2022/04/13 06:15:09;;;;;;;7.63;6.47;;;14.40;99.90;;;;;;4988291;28;20434;-67
2022/04/13 06:17:35;;;;;;;22.23;7.43;;;14.60;99.90;;;;;;4984914;28;20956;-67
2022/04/13 06:20:01;;;;;;;14.10;6.30;;;14.80;99.90;;;;;;4990668;28;20517;-66
2022/04/13 06:22:31;;;;;;;7.13;6.50;;;15.00;99.90;;;;;;4982583;28;20455;-66
2022/04/13 06:24:57;;;;;;;11.00;8.20;;;15.20;99.90;;;;;;4987586;28;20530;-67
2022/04/13 06:27:22;;;;;;;6.63;6.03;;;15.20;99.90;;;;;;4987496;28;20526;-66
2022/04/13 06:29:48;;;;;;;7.17;6.47;;;15.40;99.90;;;;;;4989082;28;20591;-67
2022/04/13 06:32:14;;;;;;;8.70;7.73;;;15.60;99.90;;;;;;4986852;28;20199;-66
2022/04/13 06:34:40;;;;;;;7.93;7.20;;;15.70;99.90;;;;;;4989211;28;20191;-67
2022/04/13 06:37:05;;;;;;;10.30;7.00;;;15.70;99.90;;;;;;4965663;28;20930;-66
2022/04/13 06:39:30;;;;;;;11.93;7.20;;;15.80;99.90;;;;;;4957355;28;20923;-66
2022/04/13 06:41:56;;;;;;;9.47;6.40;;;15.90;99.90;;;;;;4988883;28;20203;-66
2022/04/13 06:44:22;;;;;;;11.83;7.20;;;16.10;99.90;;;;;;4986957;28;20318;-66
2022/04/13 06:46:47;;;;;;;9.73;7.33;;;16.10;99.90;;;;;;4993717;28;20175;-66
2022/04/13 06:49:13;;;;;;;8.23;6.83;;;16.20;99.90;;;;;;4988656;28;20188;-66
2022/04/13 06:51:38;;;;;;;9.47;8.00;;;16.40;99.90;;;;;;4987937;28;20242;-66
2022/04/13 06:54:04;;;;;;;7.30;6.53;;;16.60;99.90;;;;;;4974662;28;20274;-66
2022/04/13 06:56:32;;;;;;;8.37;7.40;;;16.80;99.90;;;;;;4985795;28;20191;-66
2022/04/13 06:58:58;;;;;;;10.83;8.83;;;16.90;99.90;;;;;;4985796;28;20203;-67
2022/04/13 07:01:24;;;;;;;13.17;10.13;;;17.10;99.90;;;;;;4988474;28;20466;-67
2022/04/13 07:03:49;;;;;;;8.37;7.57;;;17.20;99.90;;;;;;4985663;28;20477;-66
2022/04/13 07:06:16;;;;;;;12.33;7.33;;;17.40;99.90;;;;;;4991216;28;20208;-66
2022/04/13 07:08:41;;;;;;;8.37;7.67;;;17.50;99.90;;;;;;4990465;28;20452;-67
2022/04/13 07:11:07;;;;;;;10.50;7.40;;;17.50;99.90;;;;;;4990214;28;20303;-66
2022/04/13 07:13:33;;;;;;;15.20;8.03;;;17.70;99.90;;;;;;4989608;28;20192;-66
2022/04/13 07:15:58;;;;;;;7.63;6.70;;;17.90;99.90;;;;;;4987060;28;20207;-66
2022/04/13 07:18:25;;;;;;;13.93;9.10;;;18.00;99.90;;;;;;4984186;28;20183;-67
2022/04/13 07:20:50;;;;;;;18.23;7.37;;;18.10;99.90;;;;;;4989846;28;20183;-66
2022/04/13 07:23:16;;;;;;;12.70;6.60;;;18.20;99.90;;;;;;4989049;28;20481;-67
2022/04/13 07:25:42;;;;;;;7.90;6.80;;;18.50;99.90;;;;;;4983622;28;20183;-66
2022/04/13 07:28:07;;;;;;;14.50;7.03;;;18.60;99.90;;;;;;4985930;28;20183;-66
2022/04/13 07:30:33;;;;;;;14.50;6.87;;;18.70;99.90;;;;;;4984321;28;20334;-66
2022/04/13 07:33:01;;;;;;;10.90;7.17;;;19.00;99.90;;;;;;4989761;28;20207;-67
2022/04/13 07:35:28;;;;;;;12.23;6.70;;;19.10;99.90;;;;;;4990353;28;20242;-67
2022/04/13 07:37:53;;;;;;;6.93;6.17;;;19.20;99.90;;;;;;4991779;28;20446;-66
2022/04/13 07:40:19;;;;;;;10.33;6.67;;;19.50;99.90;;;;;;4988510;28;20446;-66
2022/04/13 07:42:45;;;;;;;12.33;6.03;;;19.70;99.90;;;;;;4986574;28;20225;-66
2022/04/13 07:45:10;;;;;;;8.57;5.97;;;19.80;99.90;;;;;;4981238;28;20187;-66
2022/04/13 07:47:37;;;;;;;6.77;5.30;;;20.00;99.90;;;;;;4989861;28;20187;-66
2022/04/13 07:50:03;;;;;;;10.60;5.00;;;20.20;99.90;;;;;;4988835;28;20179;-66
2022/04/13 07:52:35;;;;;;;7.43;4.93;;;20.30;99.10;;;;;;4983841;28;20486;-66
2022/04/13 07:55:01;;;;;;;5.50;5.00;;;20.50;97.40;;;;;;4985552;28;20447;-66
2022/04/13 07:57:27;;;;;;;4.80;4.37;;;20.70;93.50;;;;;;4987181;28;20430;-67
2022/04/13 07:59:52;;;;;;;7.43;4.90;;;21.00;92.10;;;;;;4984183;28;20633;-66
2022/04/13 08:02:20;;;;;;;10.90;5.30;;;21.30;91.00;;;;;;4982921;28;20200;-66
2022/04/13 08:04:46;;;;;;;6.27;5.67;;;21.50;91.70;;;;;;4987344;28;20179;-66
2022/04/13 08:07:12;;;;;;;5.10;4.37;;;21.60;91.40;;;;;;4986338;28;20446;-66
2022/04/13 08:09:38;;;;;;;7.57;4.10;;;21.30;90.70;;;;;;4990293;28;20470;-66
2022/04/13 08:12:04;;;;;;;4.50;3.23;;;21.50;86.80;;;;;;4989739;28;20492;-67
2022/04/13 08:14:29;;;;;;;3.50;3.20;;;21.80;85.00;;;;;;4983334;28;20196;-66
2022/04/13 08:16:55;;;;;;;13.27;4.10;;;22.00;81.90;;;;;;4987282;28;20458;-66
2022/04/13 08:19:21;;;;;;;5.10;4.33;;;22.20;80.70;;;;;;4986553;28;20187;-67
2022/04/13 08:21:46;;;;;;;5.73;3.83;;;22.30;79.50;;;;;;4988201;28;20214;-66
2022/04/13 08:24:13;;;;;;;6.60;4.23;;;22.40;78.90;;;;;;4988657;28;20338;-67
2022/04/13 08:26:39;;;;;;;7.63;3.40;;;22.60;78.60;;;;;;4988162;28;20183;-67
2022/04/13 08:29:04;;;;;;;10.03;4.70;;;22.70;75.30;;;;;;4986739;28;20808;-66
2022/04/13 08:31:30;;;;;;;6.83;3.80;;;22.60;74.90;;;;;;4986601;28;20235;-67
2022/04/13 08:33:56;;;;;;;4.47;3.10;;;22.60;74.60;;;;;;4988708;28;20184;-66
2022/04/13 08:36:21;;;;;;;5.67;4.00;;;22.70;73.90;;;;;;4980538;28;20219;-68
2022/04/13 08:38:47;;;;;;;9.17;4.23;;;22.70;74.00;;;;;;4987312;28;20188;-67
2022/04/13 08:41:19;;;;;;;6.07;4.30;;;23.20;73.30;;;;;;4989318;28;20207;-67
2022/04/13 08:43:56;;;;;;;10.07;4.77;;;23.20;70.70;;;;;;4982433;28;20838;-66
2022/04/13 08:46:26;;;;;;;5.83;3.70;;;23.20;70.40;;;;;;4990483;28;20461;-67
2022/04/13 08:48:55;;;;;;;5.70;3.60;;;23.30;69.20;;;;;;4980220;28;20941;-67
2022/04/13 08:51:22;;;;;;;9.63;4.20;;;23.40;69.90;;;;;;4988729;28;20473;-67
2022/04/13 08:54:08;;;;;;;7.70;3.93;;;23.80;68.80;;;;;;4983719;28;20521;-66
2022/04/13 08:56:38;;;;;;;8.97;4.47;;;23.90;68.00;;;;;;4987654;28;20863;-67
2022/04/13 08:59:27;;;;;;;5.53;3.77;;;24.00;65.40;;;;;;4988247;28;20442;-67
2022/04/13 09:02:02;;;;;;;4.67;3.53;;;24.10;64.80;;;;;;4988602;28;20470;-66
2022/04/13 09:04:31;;;;;;;6.10;3.77;;;24.60;63.80;;;;;;4985725;28;20470;-67
2022/04/13 09:07:00;;;;;;;5.77;4.30;;;24.60;63.60;;;;;;4987916;28;20512;-67
2022/04/13 09:09:31;;;;;;;6.57;3.60;;;24.60;63.60;;;;;;4987769;28;20453;-67
2022/04/13 09:11:58;;;;;;;4.47;3.60;;;25.00;62.70;;;;;;4987994;28;20597;-67
2022/04/13 09:14:27;;;;;;;6.33;3.40;;;25.20;60.40;;;;;;4986005;28;20442;-67
2022/04/13 09:16:54;;;;;;;4.90;3.53;;;25.30;58.50;;;;;;4983388;28;21013;-68
2022/04/13 09:19:20;;;;;;;8.00;3.70;;;25.80;74.90;;;;;;4984244;28;20475;-66
2022/04/13 09:21:47;;;;;;;8.07;3.90;;;26.00;73.80;;;;;;4985069;28;20470;-65
2022/04/13 09:24:14;;;;;;;6.90;3.97;;;26.40;75.30;;;;;;4985357;28;20481;-65
2022/04/13 09:26:40;;;;;;;7.00;4.83;;;26.90;80.10;;;;;;4986540;28;20489;-65
2022/04/13 09:29:06;;;;;;;6.00;3.60;;;27.30;80.30;;;;;;4983565;28;20885;-66
2022/04/13 09:31:31;;;;;;;4.70;3.80;;;27.90;78.60;;;;;;4986504;28;20238;-65
2022/04/13 09:33:57;;;;;;;9.40;3.63;;;28.50;79.80;;;;;;4982185;28;20529;-65
2022/04/13 09:36:22;;;;;;;5.03;3.80;;;28.70;80.60;;;;;;4987580;28;20657;-67
2022/04/13 09:38:57;;;;;;;12.43;4.57;;;28.80;77.70;;;;;;5059390;28;20551;-66
2022/04/13 09:41:33;;;;;;;8.93;3.60;;;28.00;77.50;;;;;;5061462;28;20463;-66
2022/04/13 09:43:59;;;;;;;5.63;3.97;;;27.90;78.90;;;;;;5042159;28;20467;-65
2022/04/13 09:46:31;;;;;;;5.17;3.70;;;28.20;78.90;;;;;;5041254;28;20945;-65
2022/04/13 09:49:16;;;;;;;8.57;3.83;;;29.00;77.40;;;;;;5041431;28;20277;-66
2022/04/13 09:51:50;;;;;;;7.10;3.70;;;29.40;76.30;;;;;;5049430;28;20463;-66
2022/04/13 09:54:16;;;;;;;4.40;4.00;;;29.20;76.30;;;;;;5041891;28;20501;-66
2022/04/13 09:56:47;;;;;;;6.97;4.30;;;29.60;75.90;;;;;;5044035;28;20976;-65
2022/04/13 09:59:26;;;;;;;6.37;3.43;;;29.30;75.90;;;;;;5042438;28;20539;-66
2022/04/13 10:01:52;;;;;;;8.47;4.77;;;29.40;76.00;;;;;;5054524;28;20985;-66
2022/04/13 10:04:29;;;;;;;6.77;3.90;;;30.20;73.20;;;;;;5043368;28;20428;-66
2022/04/13 10:06:55;;;;;;;6.00;4.43;;;30.90;71.00;;;;;;5043699;28;20292;-66
2022/04/13 10:09:22;;;;;;;10.80;7.93;;;31.10;69.20;;;;;;5043311;28;20594;-66
2022/04/13 10:12:03;;;;;;;21.40;19.30;;;31.00;68.80;;;;;;5041820;28;20464;-66
2022/04/13 10:14:29;;;;;;;6.23;3.57;;;31.30;70.60;;;;;;5042207;28;22460;-67
2022/04/13 10:17:04;;;;;;;7.23;4.10;;;31.50;68.70;;;;;;5048213;28;20471;-66
2022/04/13 10:19:30;;;;;;;6.80;3.73;;;31.70;68.40;;;;;;5040588;28;20443;-70
2022/04/13 10:21:59;;;;;;;5.87;4.03;;;31.90;62.90;;;;;;5042645;28;20517;-67
2022/04/13 10:24:37;;;;;;;6.70;4.53;;;32.00;62.30;;;;;;5042502;28;20842;-68
2022/04/13 10:27:04;;;;;;;6.53;5.33;;;31.90;62.70;;;;;;5042736;28;20442;-68
2022/04/13 10:29:32;;;;;;;8.57;4.07;;;31.10;61.30;;;;;;5042183;28;20447;-68
2022/04/13 10:32:18;;;;;;;8.20;4.17;;;31.00;61.00;;;;;;5043075;28;20468;-69
2022/04/13 10:34:49;;;;;;;6.50;3.83;;;31.40;60.50;;;;;;5043219;28;20483;-67
2022/04/13 10:37:20;;;;;;;6.07;3.97;;;31.40;59.50;;;;;;5043945;28;20467;-67
2022/04/13 10:39:50;;;;;;;7.70;4.00;;;31.20;59.70;;;;;;5042729;28;20440;-66
2022/04/13 10:42:17;;;;;;;8.93;8.07;;;31.70;60.10;;;;;;5047481;28;20463;-67
2022/04/13 10:44:47;;;;;;;9.63;8.00;;;32.30;60.60;;;;;;5042045;28;20447;-70
2022/04/13 10:47:18;;;;;;;6.70;3.77;;;33.20;60.00;;;;;;5042033;28;20482;-69
2022/04/13 10:49:56;;;;;;;7.00;4.70;;;33.80;60.50;;;;;;5036134;28;20513;-66
2022/04/13 10:52:40;;;;;;;6.30;3.17;;;34.40;59.60;;;;;;5027095;28;20468;-67
2022/04/13 10:55:11;;;;;;;5.53;2.90;;;34.90;59.00;;;;;;5025999;28;20472;-68
2022/04/13 10:57:45;;;;;;;4.93;2.70;;;35.00;58.50;;;;;;5029202;28;20556;-67
2022/04/13 11:00:14;;;;;;;7.83;3.87;;;34.70;58.60;;;;;;5028033;28;20483;-67
2022/04/13 11:02:47;;;;;;;6.80;3.60;;;34.20;58.10;;;;;;5028785;28;21070;-65
2022/04/13 11:05:13;;;;;;;4.50;3.27;;;33.90;58.20;;;;;;5029805;28;20502;-65
2022/04/13 11:07:43;;;;;;;3.67;3.37;;;33.90;58.70;;;;;;5029417;28;20445;-67
2022/04/13 11:10:16;;;;;;;6.63;3.90;;;33.90;59.10;;;;;;5032805;28;20702;-68
2022/04/13 11:12:42;;;;;;;4.73;3.63;;;34.70;58.50;;;;;;5028366;28;20771;-69
2022/04/13 11:15:08;;;;;;;3.10;2.80;;;35.60;58.00;;;;;;5029693;28;20441;-70
2022/04/13 11:17:43;;;;;;;6.03;3.40;;;35.30;56.40;;;;;;5026964;28;20471;-72
2022/04/13 11:20:18;;;;;;;6.77;3.63;;;34.90;56.70;;;;;;5035701;28;20181;-71
2022/04/13 11:22:44;;;;;;;3.57;3.27;;;35.40;38.40;;;;;;5036820;28;20452;-70
2022/04/13 11:25:09;;;;;;;5.13;4.20;;;36.10;33.50;;;;;;5038121;28;20515;-68
2022/04/13 11:27:52;;;;;;;4.43;3.63;;;36.00;33.20;;;;;;5031799;28;20437;-70
2022/04/13 11:30:17;;;;;;;5.43;3.77;;;35.10;33.10;;;;;;5037735;28;20300;-71
2022/04/13 11:32:44;;;;;;;7.20;3.90;;;33.70;34.50;;;;;;5037900;28;20631;-70
2022/04/13 11:35:24;;;;;;;9.20;6.10;;;33.40;35.00;;;;;;5045720;28;20177;-70
2022/04/13 11:38:04;;;;;;;9.10;4.60;;;33.60;34.80;;;;;;5032856;28;20521;-71
2022/04/13 11:40:29;;;;;;;5.73;3.40;;;34.60;33.70;;;;;;5038403;28;20429;-69
2022/04/13 11:43:01;;;;;;;6.10;3.37;;;35.40;33.10;;;;;;5030892;28;20457;-69
2022/04/13 11:45:27;;;;;;;10.63;3.60;;;34.40;33.40;;;;;;5037068;28;20562;-70
2022/04/13 11:47:54;;;;;;;6.30;3.33;;;35.00;33.80;;;;;;5028354;28;20436;-70
2022/04/13 11:50:21;;;;;;;8.60;3.17;;;35.00;32.80;;;;;;5037073;28;20686;-72
2022/04/13 11:53:10;;;;;;;5.53;3.30;;;33.70;33.50;;;;;;5033341;28;20463;-71
2022/04/13 11:55:44;;;;;;;6.23;3.10;;;33.50;34.10;;;;;;5030873;28;20996;-70
2022/04/13 11:58:09;;;;;;;3.03;2.70;;;34.80;33.10;;;;;;5037249;28;20471;-71
2022/04/13 12:00:45;;;;;;;4.40;3.23;;;35.70;32.60;;;;;;5038669;28;20436;-68
2022/04/13 12:03:15;;;;;;;7.00;3.10;;;36.00;32.10;;;;;;5040597;28;20228;-71
2022/04/13 12:05:47;;;;;;;5.67;2.87;;;36.10;31.80;;;;;;5036714;28;20440;-69
2022/04/13 12:08:18;;;;;;;4.77;2.90;;;35.90;32.10;;;;;;5036784;28;20447;-70
2022/04/13 12:10:46;;;;;;;7.93;4.03;;;35.30;32.30;;;;;;5036523;28;20450;-69
2022/04/13 12:13:13;;;;;;;8.20;3.00;;;35.60;32.30;;;;;;5027226;28;20466;-69
2022/04/13 12:15:45;;;;;;;3.60;3.27;;;36.40;31.70;;;;;;5027932;28;20444;-69
2022/04/13 12:18:11;;;;;;;8.80;3.97;;;37.20;31.60;;;;;;5027511;28;21032;-69
2022/04/13 12:20:37;;;;;;;6.93;3.67;;;37.30;31.90;;;;;;5028859;28;20960;-68
2022/04/13 12:23:25;;;;;;;5.60;4.50;;;37.50;31.30;;;;;;5024969;28;20515;-71
2022/04/13 12:25:56;;;;;;;4.73;3.30;;;37.90;30.40;;;;;;5026861;28;20236;-69
2022/04/13 12:28:24;;;;;;;4.43;3.10;;;37.50;30.00;;;;;;5027880;28;21060;-71
2022/04/13 12:30:59;;;;;;;6.00;3.43;;;37.40;30.30;;;;;;5027437;28;20499;-71
2022/04/13 12:33:27;;;;;;;6.80;2.90;;;38.00;30.40;;;;;;5024796;28;20551;-71
2022/04/13 12:36:01;;;;;;;8.50;3.20;;;38.70;30.30;;;;;;5026768;28;20447;-71
2022/04/13 12:38:54;;;;;;;6.17;3.80;;;39.50;29.30;;;;;;5024582;28;21012;-72
2022/04/13 12:41:21;;;;;;;2.73;2.50;;;38.70;29.30;;;;;;5022955;28;20507;-69
2022/04/13 12:43:59;;;;;;;6.80;4.27;;;39.30;29.50;;;;;;5026543;28;20535;-69
2022/04/13 12:46:27;;;;;;;4.57;4.00;;;39.80;29.20;;;;;;5030425;28;20487;-68
2022/04/13 12:48:55;;;;;;;7.67;3.03;;;40.50;28.90;;;;;;5031337;28;20440;-71